Time;durP1;ratioP1;P1;durP2;ratioP2;P2;SDS_P1;SDS_P2;PMS_P1;PMS_P2;Temp;Humidity;BMP_temperature;BMP_pressure;BME280_temperature;BME280_humidity;BME280_pressure;Samples;Min_cycle;Max_cycle;Signal;HPM_P1;HPM_P2
2023/05/06 00:00:24;;;;;;;;;;;;;;;17.02;100.00;99655.31;5019234;28;19992;-84
2023/05/06 00:02:49;;;;;;;;;;;;;;;16.95;100.00;99649.03;5020539;28;20095;-84
2023/05/06 00:05:17;;;;;;;;;;;;;;;16.88;100.00;99664.09;5003927;28;20379;-82
2023/05/06 00:07:42;;;;;;;;;;;;;;;16.86;100.00;99655.44;5020395;28;19922;-82
2023/05/06 00:10:08;;;;;;;;;;;;;;;16.89;100.00;99647.09;5018031;28;20294;-81
2023/05/06 00:12:33;;;;;;;;;;;;;;;16.78;100.00;99649.19;5021604;28;19921;-82
2023/05/06 00:14:59;;;;;;;;;;;;;;;16.69;100.00;99644.91;5013938;28;19976;-83
2023/05/06 00:17:24;;;;;;;;;;;;;;;16.64;100.00;99647.28;5020860;28;19921;-83
2023/05/06 00:19:51;;;;;;;;;;;;;;;16.45;100.00;99641.59;5019275;28;20413;-82
2023/05/06 00:22:16;;;;;;;;;;;;;;;16.21;100.00;99642.59;5001789;28;20309;-84
2023/05/06 00:24:42;;;;;;;;;;;;;;;15.91;100.00;99641.59;5020381;28;19925;-83
2023/05/06 00:27:07;;;;;;;;;;;;;;;15.74;100.00;99637.38;5018394;28;19996;-83
2023/05/06 00:29:33;;;;;;;;;;;;;;;15.81;100.00;99633.84;5020078;28;19921;-83
2023/05/06 00:31:59;;;;;;;;;;;;;;;15.69;100.00;99640.56;5022036;28;19925;-84
2023/05/06 00:34:24;;;;;;;;;;;;;;;15.73;100.00;99643.69;5019287;28;19932;-85
2023/05/06 00:36:49;;;;;;;;;;;;;;;15.84;100.00;99644.16;5024797;28;20381;-82
2023/05/06 00:39:15;;;;;;;;;;;;;;;15.85;100.00;99639.63;5025843;28;20015;-83
2023/05/06 00:41:40;;;;;;;;;;;;;;;15.86;100.00;99634.16;5005996;28;19926;-84
2023/05/06 00:44:06;;;;;;;;;;;;;;;15.79;100.00;99635.84;5026619;28;19933;-82
2023/05/06 00:46:31;;;;;;;;;;;;;;;15.76;100.00;99636.22;5041014;28;19980;-81
2023/05/06 00:48:57;;;;;;;;;;;;;;;15.83;100.00;99631.84;5019093;28;19922;-81
2023/05/06 00:51:22;;;;;;;;;;;;;;;15.83;100.00;99642.50;5053384;22;19924;-80
2023/05/06 00:53:48;;;;;;;;;;;;;;;15.75;100.00;99634.53;5020184;28;19925;-82
2023/05/06 00:56:14;;;;;;;;;;;;;;;15.41;100.00;99640.16;5021681;28;20000;-81
2023/05/06 00:58:40;;;;;;;;;;;;;;;15.48;100.00;99642.94;5019679;28;19955;-83
2023/05/06 01:01:05;;;;;;;;;;;;;;;15.59;100.00;99637.28;5018809;28;19925;-83
2023/05/06 01:03:31;;;;;;;;;;;;;;;15.49;100.00;99636.63;5000846;28;20416;-83
2023/05/06 01:06:11;;;;;;;;;;;;;;;15.25;100.00;99636.72;5023724;28;20063;-82
2023/05/06 01:08:53;;;;;;;;;;;;;;;14.93;100.00;99635.78;5017689;28;19927;-82
2023/05/06 01:11:25;;;;;;;;;;;;;;;14.94;100.00;99640.09;5020623;28;19926;-81
2023/05/06 01:13:57;;;;;;;;;;;;;;;15.06;100.00;99638.75;5021841;28;19921;-82
2023/05/06 01:16:25;;;;;;;;;;;;;;;15.14;100.00;99638.72;5003230;28;19967;-81
2023/05/06 01:18:51;;;;;;;;;;;;;;;15.29;100.00;99648.66;5024779;28;19917;-81
2023/05/06 01:21:18;;;;;;;;;;;;;;;15.21;100.00;99643.34;5024230;28;19932;-81
2023/05/06 01:23:54;;;;;;;;;;;;;;;15.13;100.00;99645.06;5022595;28;19924;-85
2023/05/06 01:26:20;;;;;;;;;;;;;;;15.01;100.00;99643.75;5022803;28;19925;-84
2023/05/06 01:28:45;;;;;;;;;;;;;;;14.88;100.00;99642.59;5022277;28;19939;-83
2023/05/06 01:31:12;;;;;;;;;;;;;;;14.99;100.00;99647.56;5022515;28;20373;-83
2023/05/06 01:33:38;;;;;;;;;;;;;;;15.00;100.00;99652.72;4986919;28;20023;-83
2023/05/06 01:36:08;;;;;;;;;;;;;;;14.98;100.00;99645.91;5021175;28;20008;-84
2023/05/06 01:38:41;;;;;;;;;;;;;;;14.70;100.00;99653.41;5016878;28;19982;-83
2023/05/06 01:41:13;;;;;;;;;;;;;;;14.81;100.00;99661.03;5014120;28;20350;-84
2023/05/06 01:43:40;;;;;;;;;;;;;;;14.65;100.00;99663.69;5023609;28;20288;-85
2023/05/06 01:46:07;;;;;;;;;;;;;;;14.82;100.00;99662.69;5020428;28;19921;-82
2023/05/06 01:48:35;;;;;;;;;;;;;;;14.84;100.00;99660.72;5024399;28;20007;-85
2023/05/06 01:51:01;;;;;;;;;;;;;;;14.64;100.00;99656.72;5012298;28;20065;-85
2023/05/06 01:53:26;;;;;;;;;;;;;;;14.62;100.00;99650.75;5021342;28;19921;-87
2023/05/06 01:55:52;;;;;;;;;;;;;;;14.70;100.00;99666.69;5014752;28;20051;-86
2023/05/06 01:58:17;;;;;;;;;;;;;;;14.81;100.00;99661.03;5010529;28;20319;-86
2023/05/06 02:00:43;;;;;;;;;;;;;;;14.90;100.00;99652.06;5021908;28;20000;-86
2023/05/06 02:03:08;;;;;;;;;;;;;;;14.90;100.00;99654.72;5024794;28;19928;-86
2023/05/06 02:05:34;;;;;;;;;;;;;;;14.96;100.00;99659.34;5021008;28;19921;-83
2023/05/06 02:08:00;;;;;;;;;;;;;;;14.86;100.00;99653.38;5017979;28;20039;-82
2023/05/06 02:10:26;;;;;;;;;;;;;;;14.94;100.00;99656.03;5005632;28;20028;-81
2023/05/06 02:13:01;;;;;;;;;;;;;;;14.94;100.00;99649.91;5015102;28;19941;-83
2023/05/06 02:15:26;;;;;;;;;;;;;;;14.93;100.00;99646.41;5021664;28;19921;-81
2023/05/06 02:17:52;;;;;;;;;;;;;;;14.83;100.00;99648.41;5021493;28;20399;-85
2023/05/06 02:20:17;;;;;;;;;;;;;;;14.63;100.00;99647.91;5010861;28;20475;-87
2023/05/06 02:22:43;;;;;;;;;;;;;;;14.53;100.00;99643.78;5021141;28;19921;-87
2023/05/06 02:25:08;;;;;;;;;;;;;;;14.54;100.00;99640.97;5008465;28;19924;-87
2023/05/06 02:27:33;;;;;;;;;;;;;;;14.67;100.00;99637.78;5022546;28;19928;-86
2023/05/06 02:29:59;;;;;;;;;;;;;;;14.72;100.00;99638.13;5019858;28;20385;-84
2023/05/06 02:32:24;;;;;;;;;;;;;;;14.75;100.00;99635.13;5021275;28;20848;-83
2023/05/06 02:34:52;;;;;;;;;;;;;;;14.79;100.00;99632.97;5021088;28;20281;-83
2023/05/06 02:37:19;;;;;;;;;;;;;;;14.64;100.00;99638.97;5003991;28;20242;-83
2023/05/06 02:39:44;;;;;;;;;;;;;;;14.53;100.00;99628.69;5023132;28;19929;-83
2023/05/06 02:42:13;;;;;;;;;;;;;;;14.53;100.00;99628.69;5004817;28;19998;-82
2023/05/06 02:44:39;;;;;;;;;;;;;;;14.22;100.00;99633.75;5019112;28;19929;-84
2023/05/06 02:47:04;;;;;;;;;;;;;;;14.16;100.00;99629.13;5023273;28;19921;-83
2023/05/06 02:49:30;;;;;;;;;;;;;;;14.24;100.00;99630.94;5023293;28;20381;-83
2023/05/06 02:51:55;;;;;;;;;;;;;;;14.28;100.00;99633.09;5017194;28;19931;-82
2023/05/06 02:54:21;;;;;;;;;;;;;;;14.27;100.00;99615.53;5020782;28;20277;-84
2023/05/06 02:56:46;;;;;;;;;;;;;;;14.31;100.00;99626.66;5021761;28;20447;-83
2023/05/06 02:59:12;;;;;;;;;;;;;;;14.16;100.00;99618.50;5001738;28;19968;-83
2023/05/06 03:01:37;;;;;;;;;;;;;;;14.10;100.00;99624.47;5022812;28;19921;-82
2023/05/06 03:04:03;;;;;;;;;;;;;;;14.16;100.00;99623.81;5020537;28;20012;-83
2023/05/06 03:06:30;;;;;;;;;;;;;;;14.15;100.00;99622.13;5024382;28;19944;-83
2023/05/06 03:08:57;;;;;;;;;;;;;;;14.17;100.00;99625.47;5005411;28;19921;-84
2023/05/06 03:11:23;;;;;;;;;;;;;;;14.23;100.00;99624.81;5024814;28;20447;-83
2023/05/06 03:13:48;;;;;;;;;;;;;;;14.28;100.00;99617.19;5023775;28;19921;-86
2023/05/06 03:16:14;;;;;;;;;;;;;;;14.32;100.00;99623.81;5027744;28;19925;-84
2023/05/06 03:18:42;;;;;;;;;;;;;;;14.40;100.00;99627.50;5011983;28;19925;-84
2023/05/06 03:21:09;;;;;;;;;;;;;;;14.36;100.00;99629.63;5030248;28;19921;-84
2023/05/06 03:23:37;;;;;;;;;;;;;;;14.39;100.00;99621.38;5012995;28;19994;-84
2023/05/06 03:26:02;;;;;;;;;;;;;;;14.44;100.00;99615.56;5033656;28;19936;-86
2023/05/06 03:28:28;;;;;;;;;;;;;;;14.33;100.00;99625.47;5019447;28;20203;-85
2023/05/06 03:30:53;;;;;;;;;;;;;;;14.25;100.00;99617.53;5020622;28;19972;-84
2023/05/06 03:33:19;;;;;;;;;;;;;;;14.20;100.00;99613.69;5010188;28;20021;-83
2023/05/06 03:35:44;;;;;;;;;;;;;;;14.16;100.00;99613.19;5023112;28;19922;-86
2023/05/06 03:38:10;;;;;;;;;;;;;;;14.14;100.00;99615.16;5019882;28;19921;-85
2023/05/06 03:40:52;;;;;;;;;;;;;;;14.12;100.00;99617.19;5006346;28;20344;-84
2023/05/06 03:43:17;;;;;;;;;;;;;;;14.07;100.00;99630.09;5015581;28;19925;-83
2023/05/06 03:45:46;;;;;;;;;;;;;;;14.12;100.00;99624.31;5009363;28;19929;-82
2023/05/06 03:48:12;;;;;;;;;;;;;;;14.14;100.00;99625.78;5001540;28;19940;-86
2023/05/06 03:50:41;;;;;;;;;;;;;;;14.11;100.00;99623.47;5017863;28;20377;-85
2023/05/06 03:53:06;;;;;;;;;;;;;;;14.20;100.00;99625.13;5020895;28;19956;-84
2023/05/06 03:55:33;;;;;;;;;;;;;;;14.15;100.00;99632.75;5006676;28;19929;-84
2023/05/06 03:57:59;;;;;;;;;;;;;;;14.23;100.00;99622.16;5013247;28;20292;-85
2023/05/06 04:00:25;;;;;;;;;;;;;;;14.22;100.00;99627.63;5001868;28;19980;-82
2023/05/06 04:02:52;;;;;;;;;;;;;;;14.17;100.00;99624.63;5011091;28;20287;-82
2023/05/06 04:05:24;;;;;;;;;;;;;;;14.14;100.00;99625.78;5002098;28;19922;-82
2023/05/06 04:07:49;;;;;;;;;;;;;;;14.09;100.00;99638.72;5006876;28;19986;-86
2023/05/06 04:10:15;;;;;;;;;;;;;;;14.07;100.00;99629.28;5020209;28;19982;-81
2023/05/06 04:12:46;;;;;;;;;;;;;;;14.05;100.00;99632.09;5014504;28;19988;-82
2023/05/06 04:15:14;;;;;;;;;;;;;;;13.99;100.00;99627.44;5029055;28;19913;-85
2023/05/06 04:17:41;;;;;;;;;;;;;;;14.00;100.00;99629.09;5045242;28;19992;-82
2023/05/06 04:20:10;;;;;;;;;;;;;;;14.01;100.00;99646.69;5042332;28;19921;-84
2023/05/06 04:22:37;;;;;;;;;;;;;;;13.89;100.00;99638.19;5030531;28;19921;-82
2023/05/06 04:25:03;;;;;;;;;;;;;;;13.92;100.00;99642.31;5019437;28;19987;-82
2023/05/06 04:27:30;;;;;;;;;;;;;;;13.87;100.00;99641.97;5021321;28;19921;-83
2023/05/06 04:29:57;;;;;;;;;;;;;;;13.85;100.00;99644.78;5022334;28;20019;-84
2023/05/06 04:32:26;;;;;;;;;;;;;;;13.78;100.00;99651.72;5005298;28;20026;-84
2023/05/06 04:34:52;;;;;;;;;;;;;;;13.78;100.00;99645.63;5015006;28;20357;-84
2023/05/06 04:37:19;;;;;;;;;;;;;;;13.78;100.00;99656.22;5024061;28;19929;-84
2023/05/06 04:39:47;;;;;;;;;;;;;;;13.80;100.00;99659.53;5023181;28;20023;-82
2023/05/06 04:42:14;;;;;;;;;;;;;;;13.89;100.00;99666.53;5012761;28;19921;-84
2023/05/06 04:44:46;;;;;;;;;;;;;;;14.01;100.00;99667.06;4993590;28;20296;-82
2023/05/06 04:47:11;;;;;;;;;;;;;;;14.02;100.00;99658.91;5011130;28;20004;-84
2023/05/06 04:49:39;;;;;;;;;;;;;;;14.04;100.00;99667.56;5023526;28;20276;-83
2023/05/06 04:52:05;;;;;;;;;;;;;;;14.00;100.00;99671.53;5021056;28;19933;-84
2023/05/06 04:54:32;;;;;;;;;;;;;;;13.98;100.00;99683.28;5024070;28;19928;-84
2023/05/06 04:56:57;;;;;;;;;;;;;;;13.97;100.00;99681.63;5037586;28;20001;-82
2023/05/06 04:59:23;;;;;;;;;;;;;;;13.92;100.00;99679.47;5030524;28;20018;-87
2023/05/06 05:01:49;;;;;;;;;;;;;;;13.96;100.00;99680.78;5023454;28;20375;-84
2023/05/06 05:04:14;;;;;;;;;;;;;;;13.94;100.00;99682.78;5022338;28;19960;-87
2023/05/06 05:06:40;;;;;;;;;;;;;;;14.03;100.00;99684.47;5035504;28;19922;-87
2023/05/06 05:09:05;;;;;;;;;;;;;;;14.09;100.00;99686.47;5040255;28;19960;-85
2023/05/06 05:11:32;;;;;;;;;;;;;;;14.11;100.00;99689.81;5028399;28;19925;-82
2023/05/06 05:13:57;;;;;;;;;;;;;;;14.11;100.00;99697.78;5040259;28;20030;-81
2023/05/06 05:16:23;;;;;;;;;;;;;;;14.07;100.00;99688.47;5022269;28;20002;-81
2023/05/06 05:18:49;;;;;;;;;;;;;;;14.18;100.00;99701.44;5034724;28;20444;-81
2023/05/06 05:21:19;;;;;;;;;;;;;;;14.23;100.00;99693.81;5037695;28;19937;-86
2023/05/06 05:23:45;;;;;;;;;;;;;;;14.27;100.00;99699.63;5038917;28;19921;-85
2023/05/06 05:26:10;;;;;;;;;;;;;;;14.34;100.00;99696.16;5025711;28;20389;-85
2023/05/06 05:28:37;;;;;;;;;;;;;;;14.43;100.00;99693.56;5035575;28;19921;-84
2023/05/06 05:31:03;;;;;;;;;;;;;;;14.52;100.00;99687.25;5040182;28;19929;-84
2023/05/06 05:33:31;;;;;;;;;;;;;;;14.55;100.00;99692.25;5033585;28;19926;-86
2023/05/06 05:35:57;;;;;;;;;;;;;;;14.65;100.00;99687.59;5039288;28;20075;-86
2023/05/06 05:38:22;;;;;;;;;;;;;;;14.70;100.00;99690.59;5022357;28;20389;-85
2023/05/06 05:40:48;;;;;;;;;;;;;;;14.81;100.00;99690.25;5021979;28;20273;-85
2023/05/06 05:43:13;;;;;;;;;;;;;;;14.90;100.00;99691.94;5035839;28;19957;-84
2023/05/06 05:45:40;;;;;;;;;;;;;;;14.98;100.00;99694.56;5039319;28;19929;-84
2023/05/06 05:48:07;;;;;;;;;;;;;;;14.98;100.00;99694.56;5022502;28;19967;-83
2023/05/06 05:50:33;;;;;;;;;;;;;;;15.05;100.00;99695.56;5021492;28;19921;-83
2023/05/06 05:52:58;;;;;;;;;;;;;;;15.00;100.00;99697.88;5043535;28;19995;-82
2023/05/06 05:55:25;;;;;;;;;;;;;;;15.08;100.00;99699.69;5039994;28;19936;-82
2023/05/06 05:57:50;;;;;;;;;;;;;;;15.09;100.00;99701.34;5040018;28;19929;-80
2023/05/06 06:00:17;;;;;;;;;;;;;;;15.07;100.00;99704.19;5040890;28;20327;-80
2023/05/06 06:02:43;;;;;;;;;;;;;;;15.02;100.00;99705.69;5042057;28;19928;-80
2023/05/06 06:05:09;;;;;;;;;;;;;;;15.08;100.00;99711.16;5025622;28;19970;-80
2023/05/06 06:07:34;;;;;;;;;;;;;;;15.17;100.00;99698.69;5040659;28;19953;-81
2023/05/06 06:10:00;;;;;;;;;;;;;;;15.26;100.00;99705.66;5036262;28;20836;-81
2023/05/06 06:12:25;;;;;;;;;;;;;;;15.38;100.00;99706.13;5041722;28;20368;-84
2023/05/06 06:14:50;;;;;;;;;;;;;;;15.36;100.00;99708.13;5040803;28;19920;-83
2023/05/06 06:17:20;;;;;;;;;;;;;;;15.33;100.00;99709.28;5031664;28;19928;-85
2023/05/06 06:19:46;;;;;;;;;;;;;;;15.39;100.00;99707.78;5041543;28;20001;-80
2023/05/06 06:22:12;;;;;;;;;;;;;;;15.19;100.00;99707.34;5035834;28;19947;-82
2023/05/06 06:24:37;;;;;;;;;;;;;;;15.33;100.00;99709.28;5042297;28;20398;-85
2023/05/06 06:27:03;;;;;;;;;;;;;;;15.49;100.00;99708.44;5040737;28;19921;-83
2023/05/06 06:29:28;;;;;;;;;;;;;;;15.52;100.00;99702.81;5025880;28;20023;-84
2023/05/06 06:31:57;;;;;;;;;;;;;;;15.65;100.00;99712.91;5041179;28;20348;-82
2023/05/06 06:34:23;;;;;;;;;;;;;;;15.81;100.00;99713.69;5029509;28;19967;-83
2023/05/06 06:36:48;;;;;;;;;;;;;;;15.87;100.00;99707.66;5042475;28;19956;-81
2023/05/06 06:39:13;;;;;;;;;;;;;;;15.85;100.00;99704.34;5042372;28;20011;-85
2023/05/06 06:41:39;;;;;;;;;;;;;;;16.05;100.00;99709.25;5037543;28;19921;-82
2023/05/06 06:44:04;;;;;;;;;;;;;;;16.13;100.00;99711.88;5042998;28;19971;-85
2023/05/06 06:46:30;;;;;;;;;;;;;;;16.28;100.00;99707.44;5037693;28;19920;-82
2023/05/06 06:48:55;;;;;;;;;;;;;;;16.43;100.00;99703.03;5040486;28;20341;-83
2023/05/06 06:51:20;;;;;;;;;;;;;;;16.61;100.00;99708.91;5021748;28;19927;-90
2023/05/06 06:53:47;;;;;;;;;;;;;;;16.71;100.00;99720.19;5021535;28;20024;-94
2023/05/06 06:56:13;;;;;;;;;;;;;;;16.72;100.00;99716.53;5027525;28;19932;-94
2023/05/06 06:58:38;;;;;;;;;;;;;;;16.73;100.00;99715.50;5030483;28;19917;-90
2023/05/06 07:01:04;;;;;;;;;;;;;;;16.87;100.00;99713.06;5015881;28;20008;-86
2023/05/06 07:03:29;;;;;;;;;;;;;;;16.97;100.00;99713.63;5018285;28;19917;-90
2023/05/06 07:05:55;;;;;;;;;;;;;;;17.04;100.00;99711.91;5033451;28;19928;-88
2023/05/06 07:08:21;;;;;;;;;;;;;;;17.15;100.00;99719.47;5026367;28;19952;-88
2023/05/06 07:10:47;;;;;;;;;;;;;;;17.30;100.00;99712.34;5034830;28;19920;-88
2023/05/06 07:13:12;;;;;;;;;;;;;;;17.45;100.00;99715.84;5035253;28;19925;-87
2023/05/06 07:15:38;;;;;;;;;;;;;;;17.59;100.00;99717.69;5017578;28;19945;-88
2023/05/06 07:18:03;;;;;;;;;;;;;;;17.67;100.00;99718.66;5020989;28;20015;-89
2023/05/06 07:20:28;;;;;;;;;;;;;;;17.80;100.00;99724.97;5030295;28;19921;-89
2023/05/06 07:22:54;;;;;;;;;;;;;;;17.85;100.00;99727.09;5029179;28;19972;-82
2023/05/06 07:25:19;;;;;;;;;;;;;;;17.96;100.00;99715.97;5024663;28;20428;-85
2023/05/06 07:27:44;;;;;;;;;;;;;;;18.04;100.00;99709.69;5016765;28;20008;-84
2023/05/06 07:30:10;;;;;;;;;;;;;;;17.97;100.00;99709.59;5019301;28;19922;-83
2023/05/06 07:32:35;;;;;;;;;;;;;;;18.12;100.00;99717.59;5018633;28;19967;-80
2023/05/06 07:35:01;;;;;;;;;;;;;;;18.27;100.00;99719.22;5014981;28;19928;-81
2023/05/06 07:37:27;;;;;;;;;;;;;;;18.34;100.00;99722.78;5020587;28;20439;-81
2023/05/06 07:39:52;;;;;;;;;;;;;;;18.43;100.00;99715.50;5023988;28;19937;-82
2023/05/06 07:42:17;;;;;;;;;;;;;;;18.51;100.00;99718.03;5021958;28;20412;-83
2023/05/06 07:44:43;;;;;;;;;;;;;;;18.67;100.00;99722.34;5022313;28;20369;-83
2023/05/06 07:47:08;;;;;;;;;;;;;;;18.80;100.00;99722.44;5018138;28;19921;-82
2023/05/06 07:49:34;;;;;;;;;;;;;;;18.92;100.00;99723.59;5017916;28;19921;-83
2023/05/06 07:51:59;;;;;;;;;;;;;;;19.03;100.00;99725.75;5021624;28;20008;-83
2023/05/06 07:54:25;;;;;;;;;;;;;;;19.15;100.00;99726.88;5019580;28;19937;-81
2023/05/06 07:56:50;;;;;;;;;;;;;;;19.26;100.00;99732.75;5019540;28;19944;-80
2023/05/06 07:59:15;;;;;;;;;;;;;;;19.37;100.00;99729.53;5019624;28;20289;-82
2023/05/06 08:01:41;;;;;;;;;;;;;;;19.47;100.00;99735.38;5020945;28;20335;-82
2023/05/06 08:04:06;;;;;;;;;;;;;;;19.59;100.00;99734.66;5021178;28;19928;-85
2023/05/06 08:06:32;;;;;;;;;;;;;;;19.72;100.00;99733.91;5020141;28;19958;-87
2023/05/06 08:08:57;;;;;;;;;;;;;;;19.79;100.00;99734.75;5019446;28;19921;-83
2023/05/06 08:11:23;;;;;;;;;;;;;;;19.87;100.00;99725.72;5019126;28;19932;-85
2023/05/06 08:13:48;;;;;;;;;;;;;;;19.94;100.00;99727.44;5019407;28;19922;-85
2023/05/06 08:16:14;;;;;;;;;;;;;;;20.07;100.00;99728.53;5020904;28;20014;-87
2023/05/06 08:18:39;;;;;;;;;;;;;;;20.14;100.00;99732.88;5021020;28;19944;-83
2023/05/06 08:21:05;;;;;;;;;;;;;;;20.15;100.00;99717.59;5004008;28;20307;-84
2023/05/06 08:23:31;;;;;;;;;;;;;;;20.17;100.00;99723.59;5021662;28;20385;-82
2023/05/06 08:25:57;;;;;;;;;;;;;;;20.15;100.00;99726.47;5021119;28;19921;-84
2023/05/06 08:28:23;;;;;;;;;;;;;;;20.08;100.00;99727.50;4998691;28;20803;-83
2023/05/06 08:30:51;;;;;;;;;;;;;;;20.09;100.00;99719.25;5022032;28;19940;-83
2023/05/06 08:33:16;;;;;;;;;;;;;;;20.22;100.00;99718.47;5018241;28;19925;-82
2023/05/06 08:35:41;;;;;;;;;;;;;;;20.32;100.00;99724.31;5021120;28;19947;-81
2023/05/06 08:38:07;;;;;;;;;;;;;;;20.43;100.00;99721.88;5021563;28;19921;-83
2023/05/06 08:40:33;;;;;;;;;;;;;;;20.53;100.00;99724.16;5017457;28;19932;-81
2023/05/06 08:42:58;;;;;;;;;;;;;;;20.57;100.00;99717.34;5022601;28;20297;-81
2023/05/06 08:45:24;;;;;;;;;;;;;;;20.64;100.00;99723.56;5021432;28;19979;-81
2023/05/06 08:47:50;;;;;;;;;;;;;;;20.72;100.00;99731.44;5016953;28;20362;-85
2023/05/06 08:50:16;;;;;;;;;;;;;;;20.72;100.00;99725.25;5020142;28;20372;-84
2023/05/06 08:52:41;;;;;;;;;;;;;;;20.68;100.00;99713.25;5018063;28;19928;-84
2023/05/06 08:55:08;;;;;;;;;;;;;;;20.67;100.00;99716.97;5019173;28;19921;-84
2023/05/06 08:57:34;;;;;;;;;;;;;;;20.76;100.00;99713.88;5025853;28;19976;-78
2023/05/06 09:00:00;;;;;;;;;;;;;;;20.77;100.00;99712.88;5005228;28;19960;-81
2023/05/06 09:02:26;;;;;;;;;;;;;;;20.80;100.00;99717.81;5023700;28;19956;-83
2023/05/06 09:04:52;;;;;;;;;;;;;;;20.85;100.00;99709.97;5019735;28;20297;-82
2023/05/06 09:07:20;;;;;;;;;;;;;;;20.89;100.00;99712.25;5020362;28;19948;-84
2023/05/06 09:09:45;;;;;;;;;;;;;;;20.90;100.00;99712.06;5020464;28;20361;-83
2023/05/06 09:12:12;;;;;;;;;;;;;;;20.98;100.00;99709.16;5022192;28;19922;-86
2023/05/06 09:14:38;;;;;;;;;;;;;;;20.99;100.00;99715.34;5020543;28;19921;-82
2023/05/06 09:17:03;;;;;;;;;;;;;;;21.08;100.00;99704.22;5022985;28;19960;-83
2023/05/06 09:19:29;;;;;;;;;;;;;;;21.09;100.00;99705.84;5025466;28;19924;-81
2023/05/06 09:21:54;;;;;;;;;;;;;;;21.12;100.00;99710.00;5022303;28;20293;-84
2023/05/06 09:24:20;;;;;;;;;;;;;;;21.21;100.00;99708.75;5027484;28;19925;-82
2023/05/06 09:26:45;;;;;;;;;;;;;;;21.30;100.00;99718.28;5021928;28;19918;-83
2023/05/06 09:29:11;;;;;;;;;;;;;;;21.30;100.00;99714.75;5024714;28;19921;-81
2023/05/06 09:31:41;;;;;;;;;;;;;;;21.37;100.00;99710.22;5022421;28;19971;-83
2023/05/06 09:34:06;;;;;;;;;;;;;;;21.41;100.00;99709.59;5022345;28;19944;-83
2023/05/06 09:36:32;;;;;;;;;;;;;;;21.46;100.00;99704.41;5005517;28;20374;-82
2023/05/06 09:38:57;;;;;;;;;;;;;;;21.51;100.00;99704.59;5018544;28;20003;-82
2023/05/06 09:41:26;;;;;;;;;;;;;;;21.61;99.74;99705.00;5023790;28;19940;-85
2023/05/06 09:43:52;;;;;;;;;;;;;;;21.69;99.08;99695.06;5002092;28;20317;-83
2023/05/06 09:46:19;;;;;;;;;;;;;;;21.70;97.91;99699.41;5025262;28;19925;-83
2023/05/06 09:48:45;;;;;;;;;;;;;;;21.68;98.22;99698.81;5025442;28;19928;-84
2023/05/06 09:51:11;;;;;;;;;;;;;;;21.67;98.98;99691.78;5021575;28;20003;-85
2023/05/06 09:53:37;;;;;;;;;;;;;;;21.73;97.44;99690.94;5021215;28;20012;-84
2023/05/06 09:56:06;;;;;;;;;;;;;;;21.83;97.11;99694.00;5020519;28;19952;-85
2023/05/06 09:58:32;;;;;;;;;;;;;;;21.91;94.30;99691.06;5020496;28;19921;-82
2023/05/06 10:00:57;;;;;;;;;;;;;;;21.95;90.14;99692.31;5019457;28;19925;-82
2023/05/06 10:03:24;;;;;;;;;;;;;;;21.98;90.79;99684.66;5020813;28;20059;-87
2023/05/06 10:05:50;;;;;;;;;;;;;;;22.05;91.18;99680.06;5020209;28;19974;-86
2023/05/06 10:08:17;;;;;;;;;;;;;;;22.15;92.56;99676.91;5018087;28;20385;-81
2023/05/06 10:10:43;;;;;;;;;;;;;;;22.17;90.71;99682.91;5023581;28;19929;-84
2023/05/06 10:13:08;;;;;;;;;;;;;;;22.26;91.95;99681.66;5017690;28;20020;-83
2023/05/06 10:15:34;;;;;;;;;;;;;;;22.30;90.45;99685.53;5023690;28;19922;-84
2023/05/06 10:18:03;;;;;;;;;;;;;;;22.37;90.50;99677.44;5021834;28;19921;-87
2023/05/06 10:20:29;;;;;;;;;;;;;;;22.41;91.36;99663.34;5005497;28;20308;-85
2023/05/06 10:23:12;;;;;;;;;;;;;;;22.50;88.46;99668.47;5020676;28;19944;-84
2023/05/06 10:25:38;;;;;;;;;;;;;;;22.53;84.68;99659.94;5017931;28;20423;-83
2023/05/06 10:28:05;;;;;;;;;;;;;;;22.61;85.80;99657.84;5022803;28;19921;-83
2023/05/06 10:30:32;;;;;;;;;;;;;;;22.71;83.66;99658.16;4325441;28;10020840;-86
2023/05/06 10:32:58;;;;;;;;;;;;;;;22.72;80.51;99659.03;5001650;28;19921;-84
2023/05/06 10:35:27;;;;;;;;;;;;;;;22.74;82.69;99651.53;5020374;28;19991;-85
2023/05/06 10:37:53;;;;;;;;;;;;;;;22.81;80.82;99646.94;5016493;28;19929;-81
2023/05/06 10:40:19;;;;;;;;;;;;;;;22.84;79.50;99646.50;4998952;28;19968;-85
2023/05/06 10:42:44;;;;;;;;;;;;;;;22.86;79.91;99639.03;5017012;28;19971;-86
2023/05/06 10:45:10;;;;;;;;;;;;;;;22.96;80.70;99643.94;5015281;28;19932;-85
2023/05/06 10:48:02;;;;;;;;;;;;;;;23.06;80.72;99644.25;5023435;28;19925;-88
2023/05/06 10:50:27;;;;;;;;;;;;;;;23.12;80.30;99636.09;5013331;28;20693;-87
2023/05/06 10:52:54;;;;;;;;;;;;;;;23.18;78.50;99632.53;5022999;28;20021;-88
2023/05/06 10:55:28;;;;;;;;;;;;;;;23.23;78.76;99635.38;5024984;28;20000;-86
2023/05/06 10:57:55;;;;;;;;;;;;;;;23.28;76.77;99632.84;4672251;28;10000865;-86
2023/05/06 11:00:21;;;;;;;;;;;;;;;23.31;75.84;99625.38;5031902;28;19925;-84
2023/05/06 11:02:50;;;;;;;;;;;;;;;23.34;76.26;99624.91;5034455;28;19929;-88
2023/05/06 11:05:16;;;;;;;;;;;;;;;23.39;75.67;99627.75;5033060;28;19979;-88
2023/05/06 11:07:41;;;;;;;;;;;;;;;23.42;75.53;99616.53;5023137;28;19922;-88
2023/05/06 11:10:09;;;;;;;;;;;;;;;23.49;75.56;99617.31;5021476;28;20297;-84
2023/05/06 11:12:48;;;;;;;;;;;;;;;23.55;75.25;99616.44;5019469;28;20282;-86
2023/05/06 11:15:32;;;;;;;;;;;;;;;23.66;74.74;99610.28;5017662;28;19927;-85
2023/05/06 11:17:57;;;;;;;;;;;;;;;23.75;73.21;99606.22;5018816;28;19921;-85
2023/05/06 11:20:24;;;;;;;;;;;;;;;23.80;73.50;99606.34;5014491;28;19932;-92
2023/05/06 11:22:50;;;;;;;;;;;;;;;23.87;71.64;99607.09;5022037;28;19928;-91
2023/05/06 11:25:34;;;;;;;;;;;;;;;23.97;70.37;99599.31;5017215;28;20011;-91
2023/05/06 11:28:00;;;;;;;;;;;;;;;24.08;69.14;99603.91;5023317;28;20016;-86
2023/05/06 11:30:25;;;;;;;;;;;;;;;24.22;67.62;99601.03;5019925;28;20848;-79
2023/05/06 11:32:52;;;;;;;;;;;;;;;24.34;67.17;99602.72;5021129;28;20015;-82
2023/05/06 11:35:17;;;;;;;;;;;;;;;24.39;64.72;99596.63;5019243;28;19921;-83
2023/05/06 11:37:43;;;;;;;;;;;;;;;24.35;65.39;99600.84;5017157;28;20384;-83
2023/05/06 11:40:14;;;;;;;;;;;;;;;24.41;66.14;99594.53;5021947;28;19921;-80
2023/05/06 11:42:40;;;;;;;;;;;;;;;24.51;66.30;99588.56;5019916;28;19921;-80
2023/05/06 11:45:06;;;;;;;;;;;;;;;24.55;66.06;99590.59;5020695;28;19921;-81
2023/05/06 11:47:31;;;;;;;;;;;;;;;24.60;65.58;99587.19;5012623;28;19968;-80
2023/05/06 11:49:57;;;;;;;;;;;;;;;24.62;66.23;99577.00;5021665;28;19940;-81
2023/05/06 11:52:23;;;;;;;;;;;;;;;24.72;66.55;99580.75;5018450;28;20762;-81
2023/05/06 11:54:49;;;;;;;;;;;;;;;24.88;63.78;99574.69;5020918;28;19926;-81
2023/05/06 11:57:15;;;;;;;;;;;;;;;24.99;63.99;99569.50;5020166;28;19928;-81
2023/05/06 11:59:40;;;;;;;;;;;;;;;25.13;62.15;99576.31;5018190;28;19917;-80
2023/05/06 12:02:11;;;;;;;;;;;;;;;25.21;61.02;99575.97;5020780;28;20005;-81
2023/05/06 12:04:37;;;;;;;;;;;;;;;25.28;60.86;99571.22;5014855;28;20091;-81
2023/05/06 12:07:04;;;;;;;;;;;;;;;25.36;60.32;99573.56;5020203;28;19997;-81
2023/05/06 12:09:29;;;;;;;;;;;;;;;25.49;60.22;99567.91;5020489;28;20442;-81
2023/05/06 12:11:55;;;;;;;;;;;;;;;25.65;59.88;99564.47;5019181;28;20025;-81
2023/05/06 12:14:20;;;;;;;;;;;;;;;25.73;59.22;99557.88;5019172;28;19925;-81
2023/05/06 12:16:46;;;;;;;;;;;;;;;25.79;59.03;99559.63;5019692;28;19928;-81
2023/05/06 12:19:14;;;;;;;;;;;;;;;25.93;57.82;99549.31;5018691;28;19979;-81
2023/05/06 12:21:39;;;;;;;;;;;;;;;26.04;58.69;99551.13;5020479;28;19969;-80
2023/05/06 12:24:05;;;;;;;;;;;;;;;25.88;57.82;99554.63;5020752;28;19971;-81
2023/05/06 12:26:41;;;;;;;;;;;;;;;25.97;59.37;99550.47;5017762;28;19934;-82
2023/05/06 12:29:10;;;;;;;;;;;;;;;26.11;58.07;99549.09;5023079;28;19968;-81
2023/05/06 12:31:36;;;;;;;;;;;;;;;26.38;57.14;99539.34;5018082;28;19926;-81
2023/05/06 12:34:01;;;;;;;;;;;;;;;26.54;56.96;99544.97;5022134;28;20316;-79